sensor_id;sensor_type;location;lat;lon;timestamp;P1;durP1;ratioP1;P2;durP2;ratioP2
47603;SDS011;33326;51.116;6.900;2022-08-19T00:04:32;9.68;;;8.32;;
47603;SDS011;33326;51.116;6.900;2022-08-19T00:09:38;9.52;;;7.80;;
47603;SDS011;33326;51.116;6.900;2022-08-19T00:14:40;9.48;;;8.50;;
47603;SDS011;33326;51.116;6.900;2022-08-19T00:19:42;11.20;;;8.77;;
47603;SDS011;33326;51.116;6.900;2022-08-19T00:24:46;11.13;;;8.43;;
47603;SDS011;33326;51.116;6.900;2022-08-19T00:29:48;8.93;;;8.02;;
47603;SDS011;33326;51.116;6.900;2022-08-19T00:34:51;10.02;;;8.25;;
47603;SDS011;33326;51.116;6.900;2022-08-19T00:39:55;9.85;;;7.93;;
47603;SDS011;33326;51.116;6.900;2022-08-19T00:44:57;10.38;;;8.98;;
47603;SDS011;33326;51.116;6.900;2022-08-19T00:49:59;9.35;;;8.15;;
47603;SDS011;33326;51.116;6.900;2022-08-19T00:55:03;11.25;;;8.75;;
47603;SDS011;33326;51.116;6.900;2022-08-19T01:00:11;10.75;;;8.95;;
47603;SDS011;33326;51.116;6.900;2022-08-19T01:05:18;10.05;;;8.63;;
47603;SDS011;33326;51.116;6.900;2022-08-19T01:10:25;12.15;;;8.85;;
47603;SDS011;33326;51.116;6.900;2022-08-19T01:15:31;10.52;;;8.77;;
47603;SDS011;33326;51.116;6.900;2022-08-19T01:20:36;13.55;;;9.25;;
47603;SDS011;33326;51.116;6.900;2022-08-19T01:25:41;10.07;;;8.93;;
47603;SDS011;33326;51.116;6.900;2022-08-19T01:30:45;11.30;;;8.77;;
47603;SDS011;33326;51.116;6.900;2022-08-19T01:35:47;10.32;;;9.23;;
47603;SDS011;33326;51.116;6.900;2022-08-19T01:40:52;10.40;;;9.32;;
47603;SDS011;33326;51.116;6.900;2022-08-19T01:45:55;12.13;;;10.13;;
47603;SDS011;33326;51.116;6.900;2022-08-19T01:50:57;12.85;;;9.52;;
47603;SDS011;33326;51.116;6.900;2022-08-19T01:56:00;10.65;;;9.55;;
47603;SDS011;33326;51.116;6.900;2022-08-19T02:01:05;12.27;;;10.07;;
47603;SDS011;33326;51.116;6.900;2022-08-19T02:06:08;10.73;;;9.63;;
47603;SDS011;33326;51.116;6.900;2022-08-19T02:11:18;14.30;;;10.15;;
47603;SDS011;33326;51.116;6.900;2022-08-19T02:16:21;13.68;;;10.68;;
47603;SDS011;33326;51.116;6.900;2022-08-19T02:21:25;11.45;;;10.18;;
47603;SDS011;33326;51.116;6.900;2022-08-19T02:26:28;12.93;;;10.43;;
47603;SDS011;33326;51.116;6.900;2022-08-19T02:31:30;11.82;;;10.13;;
47603;SDS011;33326;51.116;6.900;2022-08-19T02:36:33;13.73;;;10.27;;
47603;SDS011;33326;51.116;6.900;2022-08-19T02:41:37;12.38;;;10.75;;
47603;SDS011;33326;51.116;6.900;2022-08-19T02:46:39;11.68;;;10.48;;
47603;SDS011;33326;51.116;6.900;2022-08-19T02:51:42;12.80;;;11.25;;
47603;SDS011;33326;51.116;6.900;2022-08-19T02:56:48;14.35;;;11.23;;
47603;SDS011;33326;51.116;6.900;2022-08-19T03:01:50;13.25;;;11.85;;
47603;SDS011;33326;51.116;6.900;2022-08-19T03:06:52;13.98;;;11.77;;
47603;SDS011;33326;51.116;6.900;2022-08-19T03:11:55;12.15;;;10.55;;
47603;SDS011;33326;51.116;6.900;2022-08-19T03:16:57;12.07;;;10.88;;
47603;SDS011;33326;51.116;6.900;2022-08-19T03:21:59;15.52;;;11.95;;
47603;SDS011;33326;51.116;6.900;2022-08-19T03:27:04;17.55;;;13.48;;
47603;SDS011;33326;51.116;6.900;2022-08-19T03:32:06;15.23;;;11.07;;
47603;SDS011;33326;51.116;6.900;2022-08-19T03:37:09;13.02;;;11.38;;
47603;SDS011;33326;51.116;6.900;2022-08-19T03:42:13;14.68;;;12.23;;
47603;SDS011;33326;51.116;6.900;2022-08-19T03:47:17;17.00;;;14.20;;
47603;SDS011;33326;51.116;6.900;2022-08-19T03:52:19;25.25;;;19.02;;
47603;SDS011;33326;51.116;6.900;2022-08-19T03:57:22;29.15;;;22.00;;
47603;SDS011;33326;51.116;6.900;2022-08-19T04:02:25;37.20;;;24.40;;
47603;SDS011;33326;51.116;6.900;2022-08-19T04:07:26;32.17;;;25.60;;
47603;SDS011;33326;51.116;6.900;2022-08-19T04:12:31;32.08;;;25.27;;
47603;SDS011;33326;51.116;6.900;2022-08-19T04:17:33;35.45;;;25.83;;
47603;SDS011;33326;51.116;6.900;2022-08-19T04:22:36;34.42;;;26.42;;
47603;SDS011;33326;51.116;6.900;2022-08-19T04:27:39;32.17;;;25.65;;
47603;SDS011;33326;51.116;6.900;2022-08-19T04:32:47;38.22;;;28.98;;
47603;SDS011;33326;51.116;6.900;2022-08-19T04:37:49;38.17;;;29.80;;
47603;SDS011;33326;51.116;6.900;2022-08-19T04:42:52;38.88;;;30.25;;
47603;SDS011;33326;51.116;6.900;2022-08-19T04:47:55;42.17;;;33.30;;
47603;SDS011;33326;51.116;6.900;2022-08-19T04:52:57;40.75;;;32.88;;
47603;SDS011;33326;51.116;6.900;2022-08-19T04:58:00;44.15;;;34.15;;
47603;SDS011;33326;51.116;6.900;2022-08-19T05:03:03;45.22;;;36.42;;
47603;SDS011;33326;51.116;6.900;2022-08-19T05:08:04;43.97;;;34.65;;
47603;SDS011;33326;51.116;6.900;2022-08-19T05:13:08;46.20;;;36.95;;
47603;SDS011;33326;51.116;6.900;2022-08-19T05:18:11;48.80;;;37.70;;
47603;SDS011;33326;51.116;6.900;2022-08-19T05:23:30;52.00;;;40.67;;
47603;SDS011;33326;51.116;6.900;2022-08-19T05:28:33;52.97;;;42.58;;
47603;SDS011;33326;51.116;6.900;2022-08-19T05:33:35;49.70;;;42.10;;
47603;SDS011;33326;51.116;6.900;2022-08-19T05:38:37;61.50;;;45.83;;
47603;SDS011;33326;51.116;6.900;2022-08-19T05:43:40;62.58;;;47.75;;
47603;SDS011;33326;51.116;6.900;2022-08-19T05:48:42;55.28;;;45.25;;
47603;SDS011;33326;51.116;6.900;2022-08-19T05:53:45;58.28;;;46.92;;
47603;SDS011;33326;51.116;6.900;2022-08-19T05:58:48;60.58;;;49.65;;
47603;SDS011;33326;51.116;6.900;2022-08-19T06:03:51;58.85;;;46.63;;
47603;SDS011;33326;51.116;6.900;2022-08-19T06:08:54;54.67;;;44.78;;
47603;SDS011;33326;51.116;6.900;2022-08-19T06:13:57;54.22;;;44.90;;
47603;SDS011;33326;51.116;6.900;2022-08-19T06:19:03;57.53;;;47.08;;
47603;SDS011;33326;51.116;6.900;2022-08-19T06:24:08;59.53;;;47.35;;
47603;SDS011;33326;51.116;6.900;2022-08-19T06:29:17;56.05;;;43.63;;
47603;SDS011;33326;51.116;6.900;2022-08-19T06:34:20;53.35;;;43.50;;
47603;SDS011;33326;51.116;6.900;2022-08-19T06:39:24;55.60;;;44.58;;
47603;SDS011;33326;51.116;6.900;2022-08-19T06:44:30;57.90;;;45.20;;
47603;SDS011;33326;51.116;6.900;2022-08-19T06:49:34;53.08;;;42.65;;
47603;SDS011;33326;51.116;6.900;2022-08-19T06:54:37;54.65;;;44.90;;
47603;SDS011;33326;51.116;6.900;2022-08-19T06:59:40;50.35;;;41.03;;
47603;SDS011;33326;51.116;6.900;2022-08-19T07:04:43;54.70;;;41.50;;
47603;SDS011;33326;51.116;6.900;2022-08-19T07:09:46;60.08;;;45.70;;
47603;SDS011;33326;51.116;6.900;2022-08-19T07:14:50;52.15;;;40.33;;
47603;SDS011;33326;51.116;6.900;2022-08-19T07:19:52;49.63;;;40.08;;
47603;SDS011;33326;51.116;6.900;2022-08-19T07:24:55;59.63;;;43.30;;
47603;SDS011;33326;51.116;6.900;2022-08-19T07:29:58;52.00;;;39.97;;
47603;SDS011;33326;51.116;6.900;2022-08-19T07:35:00;49.45;;;39.15;;
47603;SDS011;33326;51.116;6.900;2022-08-19T07:40:04;55.30;;;41.45;;
47603;SDS011;33326;51.116;6.900;2022-08-19T07:45:09;45.33;;;36.72;;
47603;SDS011;33326;51.116;6.900;2022-08-19T07:50:11;48.92;;;36.60;;
47603;SDS011;33326;51.116;6.900;2022-08-19T07:55:13;51.28;;;38.50;;
47603;SDS011;33326;51.116;6.900;2022-08-19T08:00:20;50.13;;;38.47;;
47603;SDS011;33326;51.116;6.900;2022-08-19T08:05:22;48.75;;;38.22;;
47603;SDS011;33326;51.116;6.900;2022-08-19T08:17:12;44.30;;;35.78;;
47603;SDS011;33326;51.116;6.900;2022-08-19T08:22:15;48.47;;;38.65;;
47603;SDS011;33326;51.116;6.900;2022-08-19T08:27:35;45.88;;;37.13;;
47603;SDS011;33326;51.116;6.900;2022-08-19T08:32:41;50.22;;;37.90;;
47603;SDS011;33326;51.116;6.900;2022-08-19T08:37:43;51.30;;;38.38;;
47603;SDS011;33326;51.116;6.900;2022-08-19T08:42:49;51.88;;;38.78;;
47603;SDS011;33326;51.116;6.900;2022-08-19T08:48:01;46.22;;;35.65;;
47603;SDS011;33326;51.116;6.900;2022-08-19T08:53:16;54.17;;;40.15;;
47603;SDS011;33326;51.116;6.900;2022-08-19T08:58:24;51.45;;;37.20;;
47603;SDS011;33326;51.116;6.900;2022-08-19T09:03:32;49.67;;;37.35;;
47603;SDS011;33326;51.116;6.900;2022-08-19T09:08:38;48.03;;;34.53;;
47603;SDS011;33326;51.116;6.900;2022-08-19T09:13:44;37.42;;;29.90;;
47603;SDS011;33326;51.116;6.900;2022-08-19T09:18:57;39.97;;;30.38;;
47603;SDS011;33326;51.116;6.900;2022-08-19T09:24:03;39.63;;;30.33;;
47603;SDS011;33326;51.116;6.900;2022-08-19T09:29:06;42.28;;;30.60;;
47603;SDS011;33326;51.116;6.900;2022-08-19T09:34:10;41.45;;;30.88;;
47603;SDS011;33326;51.116;6.900;2022-08-19T09:39:12;33.55;;;25.05;;
47603;SDS011;33326;51.116;6.900;2022-08-19T09:44:14;34.03;;;25.45;;
47603;SDS011;33326;51.116;6.900;2022-08-19T09:49:18;32.08;;;24.38;;
47603;SDS011;33326;51.116;6.900;2022-08-19T09:54:21;33.45;;;24.88;;
47603;SDS011;33326;51.116;6.900;2022-08-19T09:59:23;23.38;;;19.80;;
47603;SDS011;33326;51.116;6.900;2022-08-19T10:04:26;25.85;;;20.20;;
47603;SDS011;33326;51.116;6.900;2022-08-19T10:09:49;21.98;;;17.85;;
47603;SDS011;33326;51.116;6.900;2022-08-19T10:14:51;19.88;;;15.98;;
47603;SDS011;33326;51.116;6.900;2022-08-19T10:19:55;22.58;;;16.67;;
47603;SDS011;33326;51.116;6.900;2022-08-19T10:24:57;17.75;;;13.93;;
47603;SDS011;33326;51.116;6.900;2022-08-19T10:29:59;14.77;;;12.48;;
47603;SDS011;33326;51.116;6.900;2022-08-19T10:35:03;20.08;;;14.55;;
47603;SDS011;33326;51.116;6.900;2022-08-19T10:40:08;14.07;;;12.55;;
47603;SDS011;33326;51.116;6.900;2022-08-19T10:45:11;16.80;;;13.18;;
47603;SDS011;33326;51.116;6.900;2022-08-19T10:50:15;19.38;;;14.52;;
47603;SDS011;33326;51.116;6.900;2022-08-19T10:55:39;21.52;;;13.73;;
47603;SDS011;33326;51.116;6.900;2022-08-19T11:00:59;14.63;;;12.52;;
47603;SDS011;33326;51.116;6.900;2022-08-19T11:06:03;16.38;;;12.82;;
47603;SDS011;33326;51.116;6.900;2022-08-19T11:11:07;17.50;;;12.38;;
47603;SDS011;33326;51.116;6.900;2022-08-19T11:16:10;15.30;;;12.68;;
47603;SDS011;33326;51.116;6.900;2022-08-19T11:21:18;20.50;;;12.73;;
47603;SDS011;33326;51.116;6.900;2022-08-19T11:26:22;16.98;;;14.25;;
47603;SDS011;33326;51.116;6.900;2022-08-19T11:31:26;12.60;;;11.25;;
47603;SDS011;33326;51.116;6.900;2022-08-19T11:42:00;13.68;;;10.68;;
47603;SDS011;33326;51.116;6.900;2022-08-19T11:47:03;13.07;;;9.10;;
47603;SDS011;33326;51.116;6.900;2022-08-19T11:52:08;12.15;;;8.38;;
47603;SDS011;33326;51.116;6.900;2022-08-19T11:57:10;13.07;;;8.70;;
47603;SDS011;33326;51.116;6.900;2022-08-19T12:02:14;13.38;;;8.60;;
47603;SDS011;33326;51.116;6.900;2022-08-19T12:07:18;10.40;;;7.50;;
47603;SDS011;33326;51.116;6.900;2022-08-19T12:12:19;11.07;;;8.10;;
47603;SDS011;33326;51.116;6.900;2022-08-19T12:17:22;10.88;;;9.07;;
47603;SDS011;33326;51.116;6.900;2022-08-19T12:22:25;10.52;;;8.32;;
47603;SDS011;33326;51.116;6.900;2022-08-19T12:27:28;11.02;;;7.25;;
47603;SDS011;33326;51.116;6.900;2022-08-19T12:32:30;14.45;;;8.57;;
47603;SDS011;33326;51.116;6.900;2022-08-19T12:37:33;12.98;;;8.48;;
47603;SDS011;33326;51.116;6.900;2022-08-19T12:42:35;11.32;;;8.20;;
47603;SDS011;33326;51.116;6.900;2022-08-19T12:47:42;10.18;;;7.15;;
47603;SDS011;33326;51.116;6.900;2022-08-19T12:52:45;10.88;;;8.23;;
47603;SDS011;33326;51.116;6.900;2022-08-19T12:57:48;11.00;;;9.13;;
47603;SDS011;33326;51.116;6.900;2022-08-19T13:02:51;8.52;;;7.28;;
47603;SDS011;33326;51.116;6.900;2022-08-19T13:07:58;9.50;;;7.53;;
47603;SDS011;33326;51.116;6.900;2022-08-19T13:13:01;7.45;;;5.25;;
47603;SDS011;33326;51.116;6.900;2022-08-19T13:18:06;6.32;;;5.32;;
47603;SDS011;33326;51.116;6.900;2022-08-19T13:23:10;12.82;;;6.30;;
47603;SDS011;33326;51.116;6.900;2022-08-19T13:28:12;8.25;;;5.82;;
47603;SDS011;33326;51.116;6.900;2022-08-19T13:33:14;8.15;;;6.13;;
47603;SDS011;33326;51.116;6.900;2022-08-19T13:38:17;7.80;;;5.75;;
47603;SDS011;33326;51.116;6.900;2022-08-19T13:43:22;6.63;;;5.53;;
47603;SDS011;33326;51.116;6.900;2022-08-19T13:48:26;6.00;;;5.00;;
47603;SDS011;33326;51.116;6.900;2022-08-19T13:53:30;6.68;;;4.30;;
47603;SDS011;33326;51.116;6.900;2022-08-19T13:58:32;6.28;;;4.30;;
47603;SDS011;33326;51.116;6.900;2022-08-19T14:03:34;6.35;;;4.65;;
47603;SDS011;33326;51.116;6.900;2022-08-19T14:08:37;6.20;;;4.28;;
47603;SDS011;33326;51.116;6.900;2022-08-19T14:13:41;5.25;;;4.20;;
47603;SDS011;33326;51.116;6.900;2022-08-19T14:18:44;6.95;;;4.00;;
47603;SDS011;33326;51.116;6.900;2022-08-19T14:23:48;5.18;;;4.00;;
47603;SDS011;33326;51.116;6.900;2022-08-19T14:28:51;7.57;;;3.92;;
47603;SDS011;33326;51.116;6.900;2022-08-19T14:33:54;5.53;;;4.35;;
47603;SDS011;33326;51.116;6.900;2022-08-19T14:38:58;7.45;;;3.65;;
47603;SDS011;33326;51.116;6.900;2022-08-19T14:44:00;5.43;;;3.35;;
47603;SDS011;33326;51.116;6.900;2022-08-19T14:49:03;6.70;;;3.55;;
47603;SDS011;33326;51.116;6.900;2022-08-19T14:54:06;6.20;;;3.38;;
47603;SDS011;33326;51.116;6.900;2022-08-19T14:59:08;5.75;;;3.55;;
47603;SDS011;33326;51.116;6.900;2022-08-19T15:04:10;5.07;;;3.45;;
47603;SDS011;33326;51.116;6.900;2022-08-19T15:09:13;6.82;;;3.30;;
47603;SDS011;33326;51.116;6.900;2022-08-19T15:14:15;5.63;;;3.22;;
47603;SDS011;33326;51.116;6.900;2022-08-19T15:19:17;3.92;;;2.90;;
47603;SDS011;33326;51.116;6.900;2022-08-19T15:24:21;4.95;;;2.70;;
47603;SDS011;33326;51.116;6.900;2022-08-19T15:29:25;4.15;;;2.45;;
47603;SDS011;33326;51.116;6.900;2022-08-19T15:34:27;7.18;;;2.53;;
47603;SDS011;33326;51.116;6.900;2022-08-19T15:39:31;2.92;;;2.50;;
47603;SDS011;33326;51.116;6.900;2022-08-19T15:44:33;5.85;;;2.60;;
47603;SDS011;33326;51.116;6.900;2022-08-19T15:49:35;3.47;;;2.40;;
47603;SDS011;33326;51.116;6.900;2022-08-19T15:54:38;5.03;;;2.95;;
47603;SDS011;33326;51.116;6.900;2022-08-19T15:59:41;4.97;;;2.53;;
47603;SDS011;33326;51.116;6.900;2022-08-19T16:05:02;3.45;;;2.50;;
47603;SDS011;33326;51.116;6.900;2022-08-19T16:10:24;6.00;;;3.35;;
47603;SDS011;33326;51.116;6.900;2022-08-19T16:15:28;4.93;;;2.83;;
47603;SDS011;33326;51.116;6.900;2022-08-19T16:20:30;4.80;;;2.97;;
47603;SDS011;33326;51.116;6.900;2022-08-19T16:25:33;7.13;;;3.15;;
47603;SDS011;33326;51.116;6.900;2022-08-19T16:30:36;6.05;;;3.40;;
47603;SDS011;33326;51.116;6.900;2022-08-19T16:35:39;4.25;;;3.25;;
47603;SDS011;33326;51.116;6.900;2022-08-19T16:40:42;5.20;;;3.80;;
47603;SDS011;33326;51.116;6.900;2022-08-19T16:45:45;3.00;;;2.70;;
47603;SDS011;33326;51.116;6.900;2022-08-19T16:50:48;3.90;;;3.10;;
47603;SDS011;33326;51.116;6.900;2022-08-19T16:55:52;5.35;;;3.05;;
47603;SDS011;33326;51.116;6.900;2022-08-19T17:00:54;3.38;;;3.08;;
47603;SDS011;33326;51.116;6.900;2022-08-19T17:05:58;4.25;;;2.85;;
47603;SDS011;33326;51.116;6.900;2022-08-19T17:11:04;2.92;;;2.63;;
47603;SDS011;33326;51.116;6.900;2022-08-19T17:16:06;3.10;;;2.80;;
47603;SDS011;33326;51.116;6.900;2022-08-19T17:21:08;5.05;;;3.42;;
47603;SDS011;33326;51.116;6.900;2022-08-19T17:26:14;3.92;;;3.50;;
47603;SDS011;33326;51.116;6.900;2022-08-19T17:31:17;6.05;;;3.20;;
47603;SDS011;33326;51.116;6.900;2022-08-19T17:36:22;7.15;;;3.78;;
47603;SDS011;33326;51.116;6.900;2022-08-19T17:41:26;6.53;;;4.07;;
47603;SDS011;33326;51.116;6.900;2022-08-19T17:46:30;6.55;;;3.47;;
47603;SDS011;33326;51.116;6.900;2022-08-19T17:51:40;4.85;;;3.47;;
47603;SDS011;33326;51.116;6.900;2022-08-19T17:56:45;4.65;;;3.15;;
47603;SDS011;33326;51.116;6.900;2022-08-19T18:01:47;3.95;;;3.20;;
47603;SDS011;33326;51.116;6.900;2022-08-19T18:06:49;4.07;;;3.40;;
47603;SDS011;33326;51.116;6.900;2022-08-19T18:11:53;3.53;;;2.60;;
47603;SDS011;33326;51.116;6.900;2022-08-19T18:16:58;3.50;;;3.20;;
47603;SDS011;33326;51.116;6.900;2022-08-19T18:22:09;3.55;;;2.97;;
47603;SDS011;33326;51.116;6.900;2022-08-19T18:27:27;4.85;;;3.03;;
47603;SDS011;33326;51.116;6.900;2022-08-19T18:32:33;4.27;;;2.60;;
47603;SDS011;33326;51.116;6.900;2022-08-19T18:37:42;3.60;;;2.53;;
47603;SDS011;33326;51.116;6.900;2022-08-19T18:42:46;4.03;;;2.20;;
47603;SDS011;33326;51.116;6.900;2022-08-19T18:48:11;4.43;;;3.08;;
47603;SDS011;33326;51.116;6.900;2022-08-19T18:53:31;4.60;;;2.83;;
47603;SDS011;33326;51.116;6.900;2022-08-19T18:59:24;4.38;;;3.20;;
47603;SDS011;33326;51.116;6.900;2022-08-19T19:04:31;5.82;;;2.90;;
47603;SDS011;33326;51.116;6.900;2022-08-19T19:09:41;3.88;;;3.10;;
47603;SDS011;33326;51.116;6.900;2022-08-19T19:14:50;4.80;;;2.88;;
47603;SDS011;33326;51.116;6.900;2022-08-19T19:19:52;6.47;;;3.13;;
47603;SDS011;33326;51.116;6.900;2022-08-19T19:24:58;5.60;;;3.45;;
47603;SDS011;33326;51.116;6.900;2022-08-19T19:30:06;4.70;;;4.00;;
47603;SDS011;33326;51.116;6.900;2022-08-19T19:35:08;5.18;;;3.88;;
47603;SDS011;33326;51.116;6.900;2022-08-19T19:40:10;6.32;;;3.08;;
47603;SDS011;33326;51.116;6.900;2022-08-19T19:45:14;4.72;;;3.10;;
47603;SDS011;33326;51.116;6.900;2022-08-19T19:50:17;4.65;;;3.25;;
47603;SDS011;33326;51.116;6.900;2022-08-19T19:55:19;4.45;;;3.20;;
47603;SDS011;33326;51.116;6.900;2022-08-19T20:00:23;6.43;;;3.60;;
47603;SDS011;33326;51.116;6.900;2022-08-19T20:05:25;4.60;;;3.40;;
47603;SDS011;33326;51.116;6.900;2022-08-19T20:10:27;8.95;;;3.95;;
47603;SDS011;33326;51.116;6.900;2022-08-19T20:15:32;6.50;;;3.35;;
47603;SDS011;33326;51.116;6.900;2022-08-19T20:20:35;4.55;;;3.00;;
47603;SDS011;33326;51.116;6.900;2022-08-19T20:25:37;3.00;;;2.63;;
47603;SDS011;33326;51.116;6.900;2022-08-19T20:30:42;3.28;;;2.08;;
47603;SDS011;33326;51.116;6.900;2022-08-19T20:35:44;2.80;;;1.90;;
47603;SDS011;33326;51.116;6.900;2022-08-19T20:40:46;1.65;;;1.55;;
47603;SDS011;33326;51.116;6.900;2022-08-19T20:45:49;2.45;;;1.23;;
47603;SDS011;33326;51.116;6.900;2022-08-19T20:50:51;3.40;;;1.73;;
47603;SDS011;33326;51.116;6.900;2022-08-19T20:55:56;1.90;;;1.40;;
47603;SDS011;33326;51.116;6.900;2022-08-19T21:01:00;2.58;;;1.30;;
47603;SDS011;33326;51.116;6.900;2022-08-19T21:06:03;2.08;;;1.48;;
47603;SDS011;33326;51.116;6.900;2022-08-19T21:11:06;2.75;;;1.52;;
47603;SDS011;33326;51.116;6.900;2022-08-19T21:16:10;4.25;;;1.92;;
47603;SDS011;33326;51.116;6.900;2022-08-19T21:21:12;12.50;;;1.92;;
47603;SDS011;33326;51.116;6.900;2022-08-19T21:26:15;2.67;;;1.70;;
47603;SDS011;33326;51.116;6.900;2022-08-19T21:31:18;5.18;;;1.60;;
47603;SDS011;33326;51.116;6.900;2022-08-19T21:36:20;4.47;;;1.50;;
47603;SDS011;33326;51.116;6.900;2022-08-19T21:41:22;3.05;;;1.60;;
47603;SDS011;33326;51.116;6.900;2022-08-19T21:46:25;3.53;;;1.73;;
47603;SDS011;33326;51.116;6.900;2022-08-19T21:51:27;3.88;;;1.80;;
47603;SDS011;33326;51.116;6.900;2022-08-19T21:56:30;3.65;;;1.90;;
47603;SDS011;33326;51.116;6.900;2022-08-19T22:01:33;9.13;;;3.38;;
47603;SDS011;33326;51.116;6.900;2022-08-19T22:06:35;5.72;;;1.95;;
47603;SDS011;33326;51.116;6.900;2022-08-19T22:11:36;2.28;;;1.90;;
47603;SDS011;33326;51.116;6.900;2022-08-19T22:16:40;5.03;;;1.98;;
47603;SDS011;33326;51.116;6.900;2022-08-19T22:21:42;3.47;;;2.30;;
47603;SDS011;33326;51.116;6.900;2022-08-19T22:26:44;5.68;;;1.80;;
47603;SDS011;33326;51.116;6.900;2022-08-19T22:31:47;7.25;;;2.30;;
47603;SDS011;33326;51.116;6.900;2022-08-19T22:36:50;2.97;;;2.00;;
47603;SDS011;33326;51.116;6.900;2022-08-19T22:41:52;2.72;;;1.80;;
47603;SDS011;33326;51.116;6.900;2022-08-19T22:46:55;2.88;;;2.38;;
47603;SDS011;33326;51.116;6.900;2022-08-19T22:51:57;2.90;;;2.28;;
47603;SDS011;33326;51.116;6.900;2022-08-19T23:02:21;6.05;;;2.33;;
47603;SDS011;33326;51.116;6.900;2022-08-19T23:07:25;6.47;;;2.33;;
47603;SDS011;33326;51.116;6.900;2022-08-19T23:12:28;4.00;;;2.78;;
47603;SDS011;33326;51.116;6.900;2022-08-19T23:17:34;10.82;;;2.97;;
47603;SDS011;33326;51.116;6.900;2022-08-19T23:22:37;9.23;;;3.20;;
47603;SDS011;33326;51.116;6.900;2022-08-19T23:27:40;6.85;;;2.63;;
47603;SDS011;33326;51.116;6.900;2022-08-19T23:33:02;4.00;;;2.70;;
47603;SDS011;33326;51.116;6.900;2022-08-19T23:38:07;3.97;;;2.97;;
47603;SDS011;33326;51.116;6.900;2022-08-19T23:43:10;5.10;;;2.80;;
47603;SDS011;33326;51.116;6.900;2022-08-19T23:48:14;4.05;;;3.00;;
47603;SDS011;33326;51.116;6.900;2022-08-19T23:53:17;4.88;;;3.10;;
47603;SDS011;33326;51.116;6.900;2022-08-19T23:58:19;5.35;;;3.30;;
